sensor_id;sensor_type;location;lat;lon;timestamp;P1;durP1;ratioP1;P2;durP2;ratioP2
6651;SDS011;3362;50.892;10.692;2023-04-09T00:01:13;34.05;;;17.88;;
6651;SDS011;3362;50.892;10.692;2023-04-09T00:03:39;37.92;;;16.27;;
6651;SDS011;3362;50.892;10.692;2023-04-09T00:06:05;35.30;;;17.60;;
6651;SDS011;3362;50.892;10.692;2023-04-09T00:08:31;38.92;;;17.42;;
6651;SDS011;3362;50.892;10.692;2023-04-09T00:10:58;34.78;;;16.88;;
6651;SDS011;3362;50.892;10.692;2023-04-09T00:13:24;38.45;;;16.75;;
6651;SDS011;3362;50.892;10.692;2023-04-09T00:15:52;36.15;;;15.85;;
6651;SDS011;3362;50.892;10.692;2023-04-09T00:18:18;35.72;;;16.65;;
6651;SDS011;3362;50.892;10.692;2023-04-09T00:20:44;32.28;;;16.55;;
6651;SDS011;3362;50.892;10.692;2023-04-09T00:23:10;34.53;;;17.00;;
6651;SDS011;3362;50.892;10.692;2023-04-09T00:25:37;37.78;;;17.35;;
6651;SDS011;3362;50.892;10.692;2023-04-09T00:28:03;32.58;;;15.55;;
6651;SDS011;3362;50.892;10.692;2023-04-09T00:30:29;42.75;;;16.70;;
6651;SDS011;3362;50.892;10.692;2023-04-09T00:32:57;37.72;;;16.95;;
6651;SDS011;3362;50.892;10.692;2023-04-09T00:35:23;35.45;;;17.30;;
6651;SDS011;3362;50.892;10.692;2023-04-09T00:37:49;31.67;;;16.05;;
6651;SDS011;3362;50.892;10.692;2023-04-09T00:40:16;33.88;;;16.55;;
6651;SDS011;3362;50.892;10.692;2023-04-09T00:42:42;33.65;;;16.88;;
6651;SDS011;3362;50.892;10.692;2023-04-09T00:45:08;35.85;;;15.80;;
6651;SDS011;3362;50.892;10.692;2023-04-09T00:47:35;33.90;;;14.85;;
6651;SDS011;3362;50.892;10.692;2023-04-09T00:50:02;33.25;;;16.60;;
6651;SDS011;3362;50.892;10.692;2023-04-09T00:52:29;33.47;;;17.10;;
6651;SDS011;3362;50.892;10.692;2023-04-09T00:54:55;36.42;;;17.45;;
6651;SDS011;3362;50.892;10.692;2023-04-09T00:57:22;38.25;;;16.13;;
6651;SDS011;3362;50.892;10.692;2023-04-09T00:59:48;35.33;;;17.17;;
6651;SDS011;3362;50.892;10.692;2023-04-09T01:02:14;37.47;;;15.75;;
6651;SDS011;3362;50.892;10.692;2023-04-09T01:04:41;34.38;;;15.43;;
6651;SDS011;3362;50.892;10.692;2023-04-09T01:07:10;33.22;;;14.68;;
6651;SDS011;3362;50.892;10.692;2023-04-09T01:09:38;41.20;;;16.85;;
6651;SDS011;3362;50.892;10.692;2023-04-09T01:12:08;35.40;;;16.70;;
6651;SDS011;3362;50.892;10.692;2023-04-09T01:14:38;36.08;;;16.77;;
6651;SDS011;3362;50.892;10.692;2023-04-09T01:17:10;37.83;;;16.05;;
6651;SDS011;3362;50.892;10.692;2023-04-09T01:19:40;31.38;;;15.88;;
6651;SDS011;3362;50.892;10.692;2023-04-09T01:22:09;38.70;;;16.80;;
6651;SDS011;3362;50.892;10.692;2023-04-09T01:24:39;36.17;;;16.75;;
6651;SDS011;3362;50.892;10.692;2023-04-09T01:27:10;34.42;;;16.67;;
6651;SDS011;3362;50.892;10.692;2023-04-09T01:29:38;39.65;;;16.90;;
6651;SDS011;3362;50.892;10.692;2023-04-09T01:32:06;34.60;;;17.25;;
6651;SDS011;3362;50.892;10.692;2023-04-09T01:34:32;39.25;;;16.77;;
6651;SDS011;3362;50.892;10.692;2023-04-09T01:36:59;35.42;;;17.40;;
6651;SDS011;3362;50.892;10.692;2023-04-09T01:39:27;37.10;;;17.17;;
6651;SDS011;3362;50.892;10.692;2023-04-09T01:41:53;36.50;;;16.48;;
6651;SDS011;3362;50.892;10.692;2023-04-09T01:44:20;37.95;;;17.42;;
6651;SDS011;3362;50.892;10.692;2023-04-09T01:46:48;42.60;;;17.17;;
6651;SDS011;3362;50.892;10.692;2023-04-09T01:49:15;42.53;;;17.17;;
6651;SDS011;3362;50.892;10.692;2023-04-09T01:51:42;36.75;;;17.75;;
6651;SDS011;3362;50.892;10.692;2023-04-09T01:54:08;40.67;;;17.92;;
6651;SDS011;3362;50.892;10.692;2023-04-09T01:56:41;44.25;;;17.38;;
6651;SDS011;3362;50.892;10.692;2023-04-09T01:59:07;39.25;;;18.23;;
6651;SDS011;3362;50.892;10.692;2023-04-09T02:01:34;36.13;;;17.35;;
6651;SDS011;3362;50.892;10.692;2023-04-09T02:04:03;42.65;;;19.42;;
6651;SDS011;3362;50.892;10.692;2023-04-09T02:06:30;36.58;;;16.63;;
6651;SDS011;3362;50.892;10.692;2023-04-09T02:08:58;42.00;;;18.27;;
6651;SDS011;3362;50.892;10.692;2023-04-09T02:11:25;41.70;;;18.75;;
6651;SDS011;3362;50.892;10.692;2023-04-09T02:13:52;41.97;;;19.33;;
6651;SDS011;3362;50.892;10.692;2023-04-09T02:16:19;42.05;;;17.73;;
6651;SDS011;3362;50.892;10.692;2023-04-09T02:18:45;41.65;;;18.83;;
6651;SDS011;3362;50.892;10.692;2023-04-09T02:21:13;44.35;;;19.10;;
6651;SDS011;3362;50.892;10.692;2023-04-09T02:23:39;39.70;;;18.10;;
6651;SDS011;3362;50.892;10.692;2023-04-09T02:26:05;45.78;;;18.70;;
6651;SDS011;3362;50.892;10.692;2023-04-09T02:28:32;43.25;;;17.35;;
6651;SDS011;3362;50.892;10.692;2023-04-09T02:30:58;37.13;;;16.67;;
6651;SDS011;3362;50.892;10.692;2023-04-09T02:33:24;35.40;;;17.88;;
6651;SDS011;3362;50.892;10.692;2023-04-09T02:35:50;36.08;;;17.13;;
6651;SDS011;3362;50.892;10.692;2023-04-09T02:38:18;39.30;;;16.63;;
6651;SDS011;3362;50.892;10.692;2023-04-09T02:40:44;39.58;;;17.13;;
6651;SDS011;3362;50.892;10.692;2023-04-09T02:43:10;37.58;;;16.58;;
6651;SDS011;3362;50.892;10.692;2023-04-09T02:45:36;37.15;;;16.80;;
6651;SDS011;3362;50.892;10.692;2023-04-09T02:48:03;42.50;;;17.08;;
6651;SDS011;3362;50.892;10.692;2023-04-09T02:50:29;35.85;;;15.52;;
6651;SDS011;3362;50.892;10.692;2023-04-09T02:52:55;40.90;;;17.40;;
6651;SDS011;3362;50.892;10.692;2023-04-09T02:55:23;41.25;;;16.90;;
6651;SDS011;3362;50.892;10.692;2023-04-09T02:57:49;34.65;;;17.60;;
6651;SDS011;3362;50.892;10.692;2023-04-09T03:00:15;40.00;;;15.73;;
6651;SDS011;3362;50.892;10.692;2023-04-09T03:02:41;31.85;;;15.10;;
6651;SDS011;3362;50.892;10.692;2023-04-09T03:05:08;37.38;;;16.08;;
6651;SDS011;3362;50.892;10.692;2023-04-09T03:07:34;35.92;;;15.20;;
6651;SDS011;3362;50.892;10.692;2023-04-09T03:10:00;31.75;;;14.90;;
6651;SDS011;3362;50.892;10.692;2023-04-09T03:12:27;38.83;;;16.52;;
6651;SDS011;3362;50.892;10.692;2023-04-09T03:14:54;35.28;;;16.23;;
6651;SDS011;3362;50.892;10.692;2023-04-09T03:17:20;40.40;;;16.50;;
6651;SDS011;3362;50.892;10.692;2023-04-09T03:19:49;32.35;;;16.30;;
6651;SDS011;3362;50.892;10.692;2023-04-09T03:22:15;41.47;;;17.85;;
6651;SDS011;3362;50.892;10.692;2023-04-09T03:24:42;33.20;;;17.63;;
6651;SDS011;3362;50.892;10.692;2023-04-09T03:27:08;40.55;;;18.00;;
6651;SDS011;3362;50.892;10.692;2023-04-09T03:29:35;39.10;;;17.00;;
6651;SDS011;3362;50.892;10.692;2023-04-09T03:32:01;43.03;;;18.02;;
6651;SDS011;3362;50.892;10.692;2023-04-09T03:34:28;42.33;;;17.77;;
6651;SDS011;3362;50.892;10.692;2023-04-09T03:36:54;40.20;;;17.98;;
6651;SDS011;3362;50.892;10.692;2023-04-09T03:39:20;40.65;;;17.30;;
6651;SDS011;3362;50.892;10.692;2023-04-09T03:41:46;38.00;;;16.75;;
6651;SDS011;3362;50.892;10.692;2023-04-09T03:44:13;39.65;;;16.98;;
6651;SDS011;3362;50.892;10.692;2023-04-09T03:46:40;43.45;;;18.83;;
6651;SDS011;3362;50.892;10.692;2023-04-09T03:49:06;41.05;;;18.00;;
6651;SDS011;3362;50.892;10.692;2023-04-09T03:51:32;45.50;;;18.48;;
6651;SDS011;3362;50.892;10.692;2023-04-09T03:53:59;38.42;;;17.70;;
6651;SDS011;3362;50.892;10.692;2023-04-09T03:56:25;46.25;;;19.00;;
6651;SDS011;3362;50.892;10.692;2023-04-09T03:58:51;43.80;;;18.77;;
6651;SDS011;3362;50.892;10.692;2023-04-09T04:01:17;44.60;;;19.13;;
6651;SDS011;3362;50.892;10.692;2023-04-09T04:03:45;41.10;;;19.13;;
6651;SDS011;3362;50.892;10.692;2023-04-09T04:06:11;37.13;;;17.48;;
6651;SDS011;3362;50.892;10.692;2023-04-09T04:08:37;45.03;;;18.30;;
6651;SDS011;3362;50.892;10.692;2023-04-09T04:11:04;41.25;;;17.73;;
6651;SDS011;3362;50.892;10.692;2023-04-09T04:13:30;45.53;;;19.05;;
6651;SDS011;3362;50.892;10.692;2023-04-09T04:15:56;45.47;;;18.75;;
6651;SDS011;3362;50.892;10.692;2023-04-09T04:18:22;50.33;;;18.42;;
6651;SDS011;3362;50.892;10.692;2023-04-09T04:20:50;43.95;;;18.58;;
6651;SDS011;3362;50.892;10.692;2023-04-09T04:23:16;45.60;;;18.00;;
6651;SDS011;3362;50.892;10.692;2023-04-09T04:25:42;40.03;;;19.10;;
6651;SDS011;3362;50.892;10.692;2023-04-09T04:28:09;44.95;;;19.75;;
6651;SDS011;3362;50.892;10.692;2023-04-09T04:30:35;39.13;;;17.77;;
6651;SDS011;3362;50.892;10.692;2023-04-09T04:33:01;46.65;;;17.48;;
6651;SDS011;3362;50.892;10.692;2023-04-09T04:35:27;40.78;;;19.20;;
6651;SDS011;3362;50.892;10.692;2023-04-09T04:37:55;49.72;;;19.27;;
6651;SDS011;3362;50.892;10.692;2023-04-09T04:40:21;45.17;;;19.63;;
6651;SDS011;3362;50.892;10.692;2023-04-09T04:42:47;45.65;;;19.45;;
6651;SDS011;3362;50.892;10.692;2023-04-09T04:45:13;43.97;;;17.67;;
6651;SDS011;3362;50.892;10.692;2023-04-09T04:47:40;41.80;;;17.70;;
6651;SDS011;3362;50.892;10.692;2023-04-09T04:50:06;43.25;;;18.88;;
6651;SDS011;3362;50.892;10.692;2023-04-09T04:52:33;36.20;;;16.83;;
6651;SDS011;3362;50.892;10.692;2023-04-09T04:55:00;33.92;;;16.45;;
6651;SDS011;3362;50.892;10.692;2023-04-09T04:57:26;36.42;;;16.63;;
6651;SDS011;3362;50.892;10.692;2023-04-09T04:59:53;37.53;;;16.83;;
6651;SDS011;3362;50.892;10.692;2023-04-09T05:02:19;38.22;;;16.55;;
6651;SDS011;3362;50.892;10.692;2023-04-09T05:04:45;33.75;;;15.25;;
6651;SDS011;3362;50.892;10.692;2023-04-09T05:07:11;38.30;;;15.52;;
6651;SDS011;3362;50.892;10.692;2023-04-09T05:09:37;33.60;;;15.02;;
6651;SDS011;3362;50.892;10.692;2023-04-09T05:12:05;33.20;;;14.88;;
6651;SDS011;3362;50.892;10.692;2023-04-09T05:14:31;36.83;;;16.10;;
6651;SDS011;3362;50.892;10.692;2023-04-09T05:16:57;28.67;;;14.73;;
6651;SDS011;3362;50.892;10.692;2023-04-09T05:19:24;31.58;;;15.48;;
6651;SDS011;3362;50.892;10.692;2023-04-09T05:21:50;27.60;;;13.68;;
6651;SDS011;3362;50.892;10.692;2023-04-09T05:24:16;34.10;;;15.68;;
6651;SDS011;3362;50.892;10.692;2023-04-09T05:26:42;31.52;;;14.80;;
6651;SDS011;3362;50.892;10.692;2023-04-09T05:29:10;35.00;;;16.08;;
6651;SDS011;3362;50.892;10.692;2023-04-09T05:31:36;34.35;;;16.00;;
6651;SDS011;3362;50.892;10.692;2023-04-09T05:34:04;32.40;;;15.40;;
6651;SDS011;3362;50.892;10.692;2023-04-09T05:36:30;37.45;;;15.15;;
6651;SDS011;3362;50.892;10.692;2023-04-09T05:38:57;30.25;;;14.85;;
6651;SDS011;3362;50.892;10.692;2023-04-09T05:41:23;35.00;;;15.77;;
6651;SDS011;3362;50.892;10.692;2023-04-09T05:43:49;39.97;;;17.63;;
6651;SDS011;3362;50.892;10.692;2023-04-09T05:46:17;38.17;;;18.08;;
6651;SDS011;3362;50.892;10.692;2023-04-09T05:48:43;39.38;;;17.92;;
6651;SDS011;3362;50.892;10.692;2023-04-09T05:51:09;32.13;;;15.38;;
6651;SDS011;3362;50.892;10.692;2023-04-09T05:53:36;37.17;;;17.85;;
6651;SDS011;3362;50.892;10.692;2023-04-09T05:56:02;39.38;;;17.05;;
6651;SDS011;3362;50.892;10.692;2023-04-09T05:58:28;30.80;;;15.52;;
6651;SDS011;3362;50.892;10.692;2023-04-09T06:00:54;37.10;;;17.40;;
6651;SDS011;3362;50.892;10.692;2023-04-09T06:03:22;29.83;;;15.45;;
6651;SDS011;3362;50.892;10.692;2023-04-09T06:05:48;36.92;;;15.55;;
6651;SDS011;3362;50.892;10.692;2023-04-09T06:08:14;33.35;;;15.93;;
6651;SDS011;3362;50.892;10.692;2023-04-09T06:10:40;38.30;;;16.52;;
6651;SDS011;3362;50.892;10.692;2023-04-09T06:13:07;32.00;;;16.83;;
6651;SDS011;3362;50.892;10.692;2023-04-09T06:15:36;36.78;;;15.60;;
6651;SDS011;3362;50.892;10.692;2023-04-09T06:18:02;34.15;;;15.35;;
6651;SDS011;3362;50.892;10.692;2023-04-09T06:20:30;34.50;;;16.33;;
6651;SDS011;3362;50.892;10.692;2023-04-09T06:22:56;28.90;;;13.82;;
6651;SDS011;3362;50.892;10.692;2023-04-09T06:25:22;33.33;;;15.48;;
6651;SDS011;3362;50.892;10.692;2023-04-09T06:27:48;33.88;;;15.38;;
6651;SDS011;3362;50.892;10.692;2023-04-09T06:30:15;27.60;;;14.23;;
6651;SDS011;3362;50.892;10.692;2023-04-09T06:32:41;31.80;;;14.63;;
6651;SDS011;3362;50.892;10.692;2023-04-09T06:35:09;31.42;;;14.18;;
6651;SDS011;3362;50.892;10.692;2023-04-09T06:37:36;31.35;;;15.85;;
6651;SDS011;3362;50.892;10.692;2023-04-09T06:40:03;36.08;;;15.88;;
6651;SDS011;3362;50.892;10.692;2023-04-09T06:42:29;28.58;;;14.70;;
6651;SDS011;3362;50.892;10.692;2023-04-09T06:44:56;30.13;;;14.13;;
6651;SDS011;3362;50.892;10.692;2023-04-09T06:47:22;29.05;;;14.80;;
6651;SDS011;3362;50.892;10.692;2023-04-09T06:49:48;32.00;;;14.70;;
6651;SDS011;3362;50.892;10.692;2023-04-09T06:52:14;27.65;;;14.30;;
6651;SDS011;3362;50.892;10.692;2023-04-09T06:54:42;27.48;;;13.75;;
6651;SDS011;3362;50.892;10.692;2023-04-09T06:57:09;31.23;;;14.50;;
6651;SDS011;3362;50.892;10.692;2023-04-09T06:59:36;28.63;;;14.30;;
6651;SDS011;3362;50.892;10.692;2023-04-09T07:02:02;30.85;;;14.60;;
6651;SDS011;3362;50.892;10.692;2023-04-09T07:04:28;29.25;;;13.85;;
6651;SDS011;3362;50.892;10.692;2023-04-09T07:06:55;27.40;;;15.38;;
6651;SDS011;3362;50.892;10.692;2023-04-09T07:09:23;25.55;;;14.00;;
6651;SDS011;3362;50.892;10.692;2023-04-09T07:11:50;31.52;;;14.43;;
6651;SDS011;3362;50.892;10.692;2023-04-09T07:14:16;27.98;;;13.07;;
6651;SDS011;3362;50.892;10.692;2023-04-09T07:16:43;28.50;;;13.40;;
6651;SDS011;3362;50.892;10.692;2023-04-09T07:19:10;29.85;;;14.10;;
6651;SDS011;3362;50.892;10.692;2023-04-09T07:21:36;28.63;;;14.55;;
6651;SDS011;3362;50.892;10.692;2023-04-09T07:24:02;30.35;;;14.20;;
6651;SDS011;3362;50.892;10.692;2023-04-09T07:26:29;28.73;;;13.48;;
6651;SDS011;3362;50.892;10.692;2023-04-09T07:28:57;26.42;;;13.07;;
6651;SDS011;3362;50.892;10.692;2023-04-09T07:31:23;25.55;;;13.50;;
6651;SDS011;3362;50.892;10.692;2023-04-09T07:33:50;27.35;;;14.52;;
6651;SDS011;3362;50.892;10.692;2023-04-09T07:36:16;28.55;;;13.48;;
6651;SDS011;3362;50.892;10.692;2023-04-09T07:38:42;24.83;;;12.88;;
6651;SDS011;3362;50.892;10.692;2023-04-09T07:41:09;30.23;;;13.95;;
6651;SDS011;3362;50.892;10.692;2023-04-09T07:43:35;28.25;;;14.80;;
6651;SDS011;3362;50.892;10.692;2023-04-09T07:46:03;29.75;;;14.90;;
6651;SDS011;3362;50.892;10.692;2023-04-09T07:48:30;25.80;;;12.82;;
6651;SDS011;3362;50.892;10.692;2023-04-09T07:50:56;25.65;;;13.20;;
6651;SDS011;3362;50.892;10.692;2023-04-09T07:53:23;22.42;;;12.45;;
6651;SDS011;3362;50.892;10.692;2023-04-09T07:55:49;25.02;;;13.80;;
6651;SDS011;3362;50.892;10.692;2023-04-09T07:58:15;28.27;;;13.10;;
6651;SDS011;3362;50.892;10.692;2023-04-09T08:00:41;22.40;;;12.48;;
6651;SDS011;3362;50.892;10.692;2023-04-09T08:03:09;30.60;;;14.00;;
6651;SDS011;3362;50.892;10.692;2023-04-09T08:05:35;29.10;;;14.25;;
6651;SDS011;3362;50.892;10.692;2023-04-09T08:08:02;27.65;;;13.85;;
6651;SDS011;3362;50.892;10.692;2023-04-09T08:10:28;26.13;;;13.63;;
6651;SDS011;3362;50.892;10.692;2023-04-09T08:12:54;28.20;;;15.68;;
6651;SDS011;3362;50.892;10.692;2023-04-09T08:15:20;26.45;;;13.10;;
6651;SDS011;3362;50.892;10.692;2023-04-09T08:17:47;28.45;;;13.60;;
6651;SDS011;3362;50.892;10.692;2023-04-09T08:20:14;30.75;;;15.23;;
6651;SDS011;3362;50.892;10.692;2023-04-09T08:22:41;23.90;;;13.57;;
6651;SDS011;3362;50.892;10.692;2023-04-09T08:25:07;30.90;;;14.40;;
6651;SDS011;3362;50.892;10.692;2023-04-09T08:27:33;28.17;;;13.35;;
6651;SDS011;3362;50.892;10.692;2023-04-09T08:30:01;28.20;;;14.30;;
6651;SDS011;3362;50.892;10.692;2023-04-09T08:32:27;26.67;;;14.18;;
6651;SDS011;3362;50.892;10.692;2023-04-09T08:34:54;25.90;;;13.30;;
6651;SDS011;3362;50.892;10.692;2023-04-09T08:37:21;26.42;;;12.98;;
6651;SDS011;3362;50.892;10.692;2023-04-09T08:39:47;22.25;;;12.75;;
6651;SDS011;3362;50.892;10.692;2023-04-09T08:42:13;27.17;;;13.25;;
6651;SDS011;3362;50.892;10.692;2023-04-09T08:44:40;24.67;;;13.77;;
6651;SDS011;3362;50.892;10.692;2023-04-09T08:47:07;23.98;;;13.07;;
6651;SDS011;3362;50.892;10.692;2023-04-09T08:49:35;24.75;;;12.50;;
6651;SDS011;3362;50.892;10.692;2023-04-09T08:52:01;25.50;;;12.48;;
6651;SDS011;3362;50.892;10.692;2023-04-09T08:54:29;23.70;;;12.23;;
6651;SDS011;3362;50.892;10.692;2023-04-09T08:56:56;24.90;;;13.30;;
6651;SDS011;3362;50.892;10.692;2023-04-09T08:59:22;28.45;;;13.18;;
6651;SDS011;3362;50.892;10.692;2023-04-09T09:01:49;22.92;;;12.57;;
6651;SDS011;3362;50.892;10.692;2023-04-09T09:04:32;24.02;;;12.02;;
6651;SDS011;3362;50.892;10.692;2023-04-09T09:07:08;26.77;;;13.20;;
6651;SDS011;3362;50.892;10.692;2023-04-09T09:09:35;23.38;;;12.82;;
6651;SDS011;3362;50.892;10.692;2023-04-09T09:12:27;23.88;;;13.02;;
6651;SDS011;3362;50.892;10.692;2023-04-09T09:14:54;25.42;;;13.32;;
6651;SDS011;3362;50.892;10.692;2023-04-09T09:17:20;24.13;;;12.73;;
6651;SDS011;3362;50.892;10.692;2023-04-09T09:19:46;20.70;;;11.07;;
6651;SDS011;3362;50.892;10.692;2023-04-09T09:22:12;20.02;;;11.27;;
6651;SDS011;3362;50.892;10.692;2023-04-09T09:24:45;23.20;;;12.23;;
6651;SDS011;3362;50.892;10.692;2023-04-09T09:27:13;28.50;;;13.70;;
6651;SDS011;3362;50.892;10.692;2023-04-09T09:29:55;22.33;;;12.38;;
6651;SDS011;3362;50.892;10.692;2023-04-09T09:32:21;21.90;;;11.45;;
6651;SDS011;3362;50.892;10.692;2023-04-09T09:34:56;26.05;;;12.60;;
6651;SDS011;3362;50.892;10.692;2023-04-09T09:37:25;22.98;;;12.45;;
6651;SDS011;3362;50.892;10.692;2023-04-09T09:39:53;25.00;;;12.15;;
6651;SDS011;3362;50.892;10.692;2023-04-09T09:42:19;34.85;;;15.88;;
6651;SDS011;3362;50.892;10.692;2023-04-09T09:44:46;29.63;;;15.20;;
6651;SDS011;3362;50.892;10.692;2023-04-09T09:47:12;24.52;;;13.20;;
6651;SDS011;3362;50.892;10.692;2023-04-09T09:49:39;25.40;;;12.80;;
6651;SDS011;3362;50.892;10.692;2023-04-09T09:52:06;24.60;;;14.75;;
6651;SDS011;3362;50.892;10.692;2023-04-09T09:54:35;21.88;;;12.85;;
6651;SDS011;3362;50.892;10.692;2023-04-09T09:57:06;24.38;;;13.27;;
6651;SDS011;3362;50.892;10.692;2023-04-09T09:59:33;23.90;;;12.73;;
6651;SDS011;3362;50.892;10.692;2023-04-09T10:02:03;24.25;;;13.30;;
6651;SDS011;3362;50.892;10.692;2023-04-09T10:04:30;19.88;;;11.73;;
6651;SDS011;3362;50.892;10.692;2023-04-09T10:06:57;20.85;;;12.38;;
6651;SDS011;3362;50.892;10.692;2023-04-09T10:09:25;22.45;;;11.15;;
6651;SDS011;3362;50.892;10.692;2023-04-09T10:11:52;21.42;;;11.63;;
6651;SDS011;3362;50.892;10.692;2023-04-09T10:14:21;19.27;;;10.88;;
6651;SDS011;3362;50.892;10.692;2023-04-09T10:16:47;20.33;;;10.88;;
6651;SDS011;3362;50.892;10.692;2023-04-09T10:19:14;18.30;;;10.98;;
6651;SDS011;3362;50.892;10.692;2023-04-09T10:21:42;18.70;;;11.15;;
6651;SDS011;3362;50.892;10.692;2023-04-09T10:24:10;18.88;;;10.70;;
6651;SDS011;3362;50.892;10.692;2023-04-09T10:26:38;20.95;;;12.38;;
6651;SDS011;3362;50.892;10.692;2023-04-09T10:29:06;17.35;;;11.57;;
6651;SDS011;3362;50.892;10.692;2023-04-09T10:31:51;18.27;;;10.50;;
6651;SDS011;3362;50.892;10.692;2023-04-09T10:34:20;20.08;;;11.50;;
6651;SDS011;3362;50.892;10.692;2023-04-09T10:36:48;19.63;;;11.52;;
6651;SDS011;3362;50.892;10.692;2023-04-09T10:39:15;16.60;;;10.02;;
6651;SDS011;3362;50.892;10.692;2023-04-09T10:41:42;16.98;;;10.57;;
6651;SDS011;3362;50.892;10.692;2023-04-09T10:44:18;17.67;;;11.20;;
6651;SDS011;3362;50.892;10.692;2023-04-09T10:46:44;19.50;;;11.82;;
6651;SDS011;3362;50.892;10.692;2023-04-09T10:49:14;16.52;;;9.77;;
6651;SDS011;3362;50.892;10.692;2023-04-09T10:51:40;15.93;;;9.55;;
6651;SDS011;3362;50.892;10.692;2023-04-09T10:59:31;14.73;;;9.93;;
6651;SDS011;3362;50.892;10.692;2023-04-09T11:01:57;15.93;;;10.40;;
6651;SDS011;3362;50.892;10.692;2023-04-09T11:04:26;18.48;;;10.63;;
6651;SDS011;3362;50.892;10.692;2023-04-09T11:06:55;16.60;;;10.75;;
6651;SDS011;3362;50.892;10.692;2023-04-09T11:09:21;14.65;;;9.80;;
6651;SDS011;3362;50.892;10.692;2023-04-09T11:11:50;15.82;;;10.43;;
6651;SDS011;3362;50.892;10.692;2023-04-09T11:14:18;12.02;;;9.23;;
6651;SDS011;3362;50.892;10.692;2023-04-09T11:16:46;12.93;;;9.02;;
6651;SDS011;3362;50.892;10.692;2023-04-09T11:19:12;13.60;;;9.80;;
6651;SDS011;3362;50.892;10.692;2023-04-09T11:21:41;13.23;;;10.15;;
6651;SDS011;3362;50.892;10.692;2023-04-09T11:24:10;12.77;;;9.45;;
6651;SDS011;3362;50.892;10.692;2023-04-09T11:26:37;10.68;;;8.35;;
6651;SDS011;3362;50.892;10.692;2023-04-09T11:29:03;13.13;;;9.52;;
6651;SDS011;3362;50.892;10.692;2023-04-09T11:31:30;12.70;;;9.02;;
6651;SDS011;3362;50.892;10.692;2023-04-09T11:33:56;13.07;;;10.27;;
6651;SDS011;3362;50.892;10.692;2023-04-09T11:36:22;14.13;;;10.95;;
6651;SDS011;3362;50.892;10.692;2023-04-09T11:38:50;12.95;;;9.38;;
6651;SDS011;3362;50.892;10.692;2023-04-09T11:41:16;11.80;;;9.50;;
6651;SDS011;3362;50.892;10.692;2023-04-09T11:43:42;13.80;;;9.55;;
6651;SDS011;3362;50.892;10.692;2023-04-09T11:46:08;13.80;;;10.05;;
6651;SDS011;3362;50.892;10.692;2023-04-09T11:48:35;13.00;;;8.88;;
6651;SDS011;3362;50.892;10.692;2023-04-09T11:51:01;13.15;;;9.13;;
6651;SDS011;3362;50.892;10.692;2023-04-09T11:53:29;12.63;;;9.07;;
6651;SDS011;3362;50.892;10.692;2023-04-09T11:55:56;12.68;;;9.30;;
6651;SDS011;3362;50.892;10.692;2023-04-09T11:58:23;13.20;;;8.88;;
6651;SDS011;3362;50.892;10.692;2023-04-09T12:00:51;12.15;;;8.98;;
6651;SDS011;3362;50.892;10.692;2023-04-09T12:03:17;13.98;;;8.82;;
6651;SDS011;3362;50.892;10.692;2023-04-09T12:05:44;12.55;;;8.73;;
6651;SDS011;3362;50.892;10.692;2023-04-09T12:08:10;10.32;;;7.63;;
6651;SDS011;3362;50.892;10.692;2023-04-09T12:10:37;11.10;;;7.93;;
6651;SDS011;3362;50.892;10.692;2023-04-09T12:13:06;12.55;;;8.18;;
6651;SDS011;3362;50.892;10.692;2023-04-09T12:15:33;11.15;;;7.72;;
6651;SDS011;3362;50.892;10.692;2023-04-09T12:18:00;9.25;;;7.40;;
6651;SDS011;3362;50.892;10.692;2023-04-09T12:20:27;13.50;;;7.30;;
6651;SDS011;3362;50.892;10.692;2023-04-09T12:22:53;9.35;;;7.20;;
6651;SDS011;3362;50.892;10.692;2023-04-09T12:25:19;9.68;;;7.40;;
6651;SDS011;3362;50.892;10.692;2023-04-09T12:27:46;11.27;;;8.35;;
6651;SDS011;3362;50.892;10.692;2023-04-09T12:30:13;8.02;;;7.05;;
6651;SDS011;3362;50.892;10.692;2023-04-09T12:32:39;8.98;;;7.30;;
6651;SDS011;3362;50.892;10.692;2023-04-09T12:35:07;11.20;;;7.53;;
6651;SDS011;3362;50.892;10.692;2023-04-09T12:37:33;9.43;;;7.55;;
6651;SDS011;3362;50.892;10.692;2023-04-09T12:39:59;11.00;;;7.30;;
6651;SDS011;3362;50.892;10.692;2023-04-09T12:42:25;12.30;;;8.13;;
6651;SDS011;3362;50.892;10.692;2023-04-09T12:44:51;12.63;;;8.27;;
6651;SDS011;3362;50.892;10.692;2023-04-09T12:47:19;8.38;;;6.38;;
6651;SDS011;3362;50.892;10.692;2023-04-09T12:49:45;9.10;;;7.10;;
6651;SDS011;3362;50.892;10.692;2023-04-09T12:52:14;10.93;;;7.45;;
6651;SDS011;3362;50.892;10.692;2023-04-09T12:54:40;11.23;;;7.13;;
6651;SDS011;3362;50.892;10.692;2023-04-09T12:57:06;9.32;;;6.35;;
6651;SDS011;3362;50.892;10.692;2023-04-09T12:59:32;11.02;;;6.50;;
6651;SDS011;3362;50.892;10.692;2023-04-09T13:01:59;9.43;;;6.03;;
6651;SDS011;3362;50.892;10.692;2023-04-09T13:04:26;9.48;;;6.47;;
6651;SDS011;3362;50.892;10.692;2023-04-09T13:06:53;7.82;;;5.80;;
6651;SDS011;3362;50.892;10.692;2023-04-09T13:09:19;7.85;;;5.63;;
6651;SDS011;3362;50.892;10.692;2023-04-09T13:11:45;5.93;;;5.05;;
6651;SDS011;3362;50.892;10.692;2023-04-09T13:14:11;8.27;;;6.03;;
6651;SDS011;3362;50.892;10.692;2023-04-09T13:16:38;6.60;;;5.28;;
6651;SDS011;3362;50.892;10.692;2023-04-09T13:19:05;8.05;;;5.60;;
6651;SDS011;3362;50.892;10.692;2023-04-09T13:21:33;5.90;;;5.00;;
6651;SDS011;3362;50.892;10.692;2023-04-09T13:23:59;5.53;;;4.93;;
6651;SDS011;3362;50.892;10.692;2023-04-09T13:26:25;6.05;;;5.25;;
6651;SDS011;3362;50.892;10.692;2023-04-09T13:28:51;8.25;;;6.10;;
6651;SDS011;3362;50.892;10.692;2023-04-09T13:31:18;5.55;;;4.55;;
6651;SDS011;3362;50.892;10.692;2023-04-09T13:33:44;6.38;;;5.20;;
6651;SDS011;3362;50.892;10.692;2023-04-09T13:36:10;6.50;;;5.57;;
6651;SDS011;3362;50.892;10.692;2023-04-09T13:38:38;8.40;;;5.55;;
6651;SDS011;3362;50.892;10.692;2023-04-09T13:41:05;5.50;;;4.38;;
6651;SDS011;3362;50.892;10.692;2023-04-09T13:43:31;5.70;;;5.07;;
6651;SDS011;3362;50.892;10.692;2023-04-09T13:45:57;6.03;;;5.10;;
6651;SDS011;3362;50.892;10.692;2023-04-09T13:48:24;5.90;;;4.45;;
6651;SDS011;3362;50.892;10.692;2023-04-09T13:50:50;5.22;;;4.38;;
6651;SDS011;3362;50.892;10.692;2023-04-09T13:53:16;5.03;;;4.53;;
6651;SDS011;3362;50.892;10.692;2023-04-09T13:55:44;4.97;;;4.47;;
6651;SDS011;3362;50.892;10.692;2023-04-09T13:58:10;4.57;;;3.95;;
6651;SDS011;3362;50.892;10.692;2023-04-09T14:00:36;7.43;;;4.88;;
6651;SDS011;3362;50.892;10.692;2023-04-09T14:03:03;5.88;;;5.25;;
6651;SDS011;3362;50.892;10.692;2023-04-09T14:05:29;6.75;;;4.80;;
6651;SDS011;3362;50.892;10.692;2023-04-09T14:07:56;4.93;;;4.32;;
6651;SDS011;3362;50.892;10.692;2023-04-09T14:10:22;6.25;;;5.13;;
6651;SDS011;3362;50.892;10.692;2023-04-09T14:12:50;6.85;;;5.18;;
6651;SDS011;3362;50.892;10.692;2023-04-09T14:15:16;6.75;;;4.90;;
6651;SDS011;3362;50.892;10.692;2023-04-09T14:17:42;8.20;;;4.72;;
6651;SDS011;3362;50.892;10.692;2023-04-09T14:20:09;5.32;;;4.10;;
6651;SDS011;3362;50.892;10.692;2023-04-09T14:22:35;5.53;;;4.13;;
6651;SDS011;3362;50.892;10.692;2023-04-09T14:25:01;6.53;;;4.10;;
6651;SDS011;3362;50.892;10.692;2023-04-09T14:27:27;6.40;;;4.25;;
6651;SDS011;3362;50.892;10.692;2023-04-09T14:29:55;5.35;;;4.55;;
6651;SDS011;3362;50.892;10.692;2023-04-09T14:32:21;7.82;;;3.90;;
6651;SDS011;3362;50.892;10.692;2023-04-09T14:34:47;7.22;;;4.28;;
6651;SDS011;3362;50.892;10.692;2023-04-09T14:37:13;6.70;;;4.40;;
6651;SDS011;3362;50.892;10.692;2023-04-09T14:39:40;6.32;;;4.43;;
6651;SDS011;3362;50.892;10.692;2023-04-09T14:42:06;5.13;;;4.57;;
6651;SDS011;3362;50.892;10.692;2023-04-09T14:44:32;5.78;;;4.65;;